createdAt,value
2023-02-19T00:03:10.137Z,99586.40
2023-02-19T00:08:13.233Z,99580.20
2023-02-19T00:13:16.436Z,99580.60
2023-02-19T00:18:19.650Z,99582.20
2023-02-19T00:23:22.643Z,99592.80
2023-02-19T00:28:25.672Z,99589.00
2023-02-19T00:33:29.973Z,99594.80
2023-02-19T00:38:37.901Z,99593.80
2023-02-19T00:43:40.981Z,99587.80
2023-02-19T00:48:44.720Z,99582.00
2023-02-19T00:53:48.905Z,99585.00
2023-02-19T00:58:52.275Z,99587.60
2023-02-19T01:03:55.392Z,99595.60
2023-02-19T01:08:59.412Z,99607.00
2023-02-19T01:14:03.744Z,99614.20
2023-02-19T01:19:07.562Z,99614.40
2023-02-19T01:24:10.773Z,99614.20
2023-02-19T01:29:13.909Z,99619.80
2023-02-19T01:34:17.088Z,99611.20
2023-02-19T01:39:20.106Z,99607.00
2023-02-19T01:44:23.200Z,99608.40
2023-02-19T01:49:56.513Z,99612.40
2023-02-19T01:55:04.856Z,99600.40
2023-02-19T02:00:15.780Z,99595.80
2023-02-19T02:05:45.870Z,99609.60
2023-02-19T02:10:52.100Z,99606.40
2023-02-19T02:16:34.685Z,99603.60
2023-02-19T02:22:07.933Z,99594.80
2023-02-19T02:27:39.582Z,99593.80
2023-02-19T02:33:01.625Z,99592.00
2023-02-19T02:38:11.452Z,99598.80
2023-02-19T02:43:14.594Z,99598.40
2023-02-19T02:48:38.613Z,99606.80
2023-02-19T02:54:20.100Z,99607.20
2023-02-19T02:59:29.847Z,99605.00
2023-02-19T03:05:09.845Z,99596.80
2023-02-19T03:10:21.231Z,99601.00
2023-02-19T03:15:53.947Z,99597.20
2023-02-19T03:20:59.361Z,99591.80
2023-02-19T03:26:06.005Z,99587.00
2023-02-19T03:31:16.516Z,99587.00
2023-02-19T03:36:26.327Z,99598.00
2023-02-19T03:41:47.248Z,99586.20
2023-02-19T03:46:56.392Z,99590.40
2023-02-19T03:52:31.650Z,99595.00
2023-02-19T03:57:47.529Z,99586.40
2023-02-19T04:03:18.835Z,99588.00
2023-02-19T04:08:25.860Z,99587.20
2023-02-19T04:13:42.250Z,99578.60
2023-02-19T04:18:51.710Z,99585.80
2023-02-19T04:23:57.414Z,99578.20
2023-02-19T04:29:00.586Z,99578.00
2023-02-19T04:34:04.870Z,99581.40
2023-02-19T04:39:08.948Z,99565.60
2023-02-19T04:44:12.253Z,99566.60
2023-02-19T04:49:15.557Z,99566.40
2023-02-19T04:54:18.609Z,99578.00
2023-02-19T04:59:21.716Z,99564.60
2023-02-19T05:04:24.947Z,99562.00
2023-02-19T05:09:28.184Z,99561.60
2023-02-19T05:14:31.298Z,99562.00
2023-02-19T05:19:34.399Z,99554.80
2023-02-19T05:24:37.523Z,99557.00
2023-02-19T05:29:40.815Z,99560.00
2023-02-19T05:34:43.932Z,99555.20
2023-02-19T05:39:48.358Z,99564.40
2023-02-19T05:44:51.566Z,99559.80
2023-02-19T05:49:54.673Z,99565.40
2023-02-19T05:54:57.705Z,99567.00
2023-02-19T06:00:00.889Z,99565.40
2023-02-19T06:05:04.830Z,99571.80
2023-02-19T06:10:12.264Z,99574.80
2023-02-19T06:15:15.341Z,99578.20
2023-02-19T06:20:18.542Z,99584.40
2023-02-19T06:25:21.747Z,99592.60
2023-02-19T06:30:25.036Z,99597.00
2023-02-19T06:35:28.173Z,99603.60
2023-02-19T06:40:31.271Z,99600.80
2023-02-19T06:45:35.004Z,99608.40
2023-02-19T06:50:38.143Z,99618.20
2023-02-19T06:55:41.619Z,99614.60
2023-02-19T07:00:44.846Z,99615.80
2023-02-19T07:05:48.809Z,99620.00
2023-02-19T07:10:59.783Z,99620.60
2023-02-19T07:16:11.292Z,99628.00
2023-02-19T07:21:16.582Z,99639.40
2023-02-19T07:26:21.616Z,99648.40
2023-02-19T07:31:24.928Z,99651.20
2023-02-19T07:36:28.304Z,99654.20
2023-02-19T07:41:32.195Z,99655.40
2023-02-19T07:46:35.333Z,99661.80
2023-02-19T07:51:40.064Z,99664.20
2023-02-19T07:56:43.159Z,99668.60
2023-02-19T08:02:05.013Z,99671.80
2023-02-19T08:07:08.128Z,99672.40
2023-02-19T08:12:30.882Z,99677.00
2023-02-19T08:17:34.184Z,99690.20
2023-02-19T08:22:37.491Z,99697.20
2023-02-19T08:27:40.721Z,99696.80
2023-02-19T08:32:43.920Z,99700.80
2023-02-19T08:37:47.147Z,99697.20
2023-02-19T08:42:50.536Z,99707.40
2023-02-19T08:47:53.644Z,99712.80
2023-02-19T08:52:57.062Z,99721.00
2023-02-19T08:58:00.369Z,99723.80
2023-02-19T09:03:03.477Z,99724.20
2023-02-19T09:08:06.888Z,99738.20
2023-02-19T09:13:10.008Z,99744.00
2023-02-19T09:18:13.102Z,99742.00
2023-02-19T09:23:16.414Z,99742.00
2023-02-19T09:28:21.373Z,99743.20
2023-02-19T09:33:24.672Z,99751.40
2023-02-19T09:38:29.576Z,99749.40
2023-02-19T09:43:33.844Z,99748.80
2023-02-19T09:48:36.986Z,99756.40
2023-02-19T09:53:51.044Z,99754.60
2023-02-19T09:58:58.843Z,99769.60
2023-02-19T10:04:02.257Z,99767.00
2023-02-19T10:09:27.373Z,99771.60
2023-02-19T10:14:42.049Z,99770.20
2023-02-19T10:19:45.159Z,99776.80
2023-02-19T10:24:55.712Z,99785.60
2023-02-19T10:30:02.714Z,99796.00
2023-02-19T10:35:14.881Z,99793.80
2023-02-19T10:40:27.877Z,99790.40
2023-02-19T10:45:48.432Z,99796.20
2023-02-19T10:51:00.221Z,99794.80
2023-02-19T10:56:24.832Z,99796.00
2023-02-19T11:01:28.271Z,99792.80
2023-02-19T11:06:32.937Z,99800.40
2023-02-19T11:11:40.733Z,99807.60
2023-02-19T11:16:52.173Z,99806.00
2023-02-19T11:21:56.137Z,99817.60
2023-02-19T11:27:00.839Z,99819.80
2023-02-19T11:32:29.463Z,99830.40
2023-02-19T11:37:33.408Z,99826.40
2023-02-19T11:42:52.492Z,99822.20
2023-02-19T11:48:31.026Z,99837.40
2023-02-19T11:53:39.864Z,99845.00
2023-02-19T11:58:49.013Z,99844.40
2023-02-19T12:03:55.814Z,99851.60
2023-02-19T12:09:26.883Z,99859.60
2023-02-19T12:15:01.310Z,99846.20
2023-02-19T12:20:26.019Z,99860.60
2023-02-19T12:26:08.108Z,99864.20
2023-02-19T12:31:36.155Z,99867.80
2023-02-19T12:37:22.867Z,99864.80
2023-02-19T12:42:34.677Z,99874.40
2023-02-19T12:47:42.388Z,99883.40
2023-02-19T12:52:54.191Z,99885.80
2023-02-19T12:58:04.427Z,99883.40
2023-02-19T13:03:23.162Z,99895.80
2023-02-19T13:08:57.842Z,99892.40
2023-02-19T13:14:26.719Z,99906.00
2023-02-19T13:19:33.353Z,99911.80
2023-02-19T13:24:43.040Z,99918.40
2023-02-19T13:29:58.151Z,99913.60
2023-02-19T13:35:42.916Z,99921.60
2023-02-19T13:41:00.472Z,99921.20
2023-02-19T13:46:09.606Z,99916.80
2023-02-19T13:51:12.990Z,99930.20
2023-02-19T13:56:31.901Z,99926.00
2023-02-19T14:01:50.681Z,99934.20
2023-02-19T14:07:05.921Z,99948.00
2023-02-19T14:12:16.266Z,99952.60
2023-02-19T14:17:47.103Z,99959.20
2023-02-19T14:23:16.527Z,99957.40
2023-02-19T14:28:31.504Z,99963.40
2023-02-19T14:33:47.920Z,99962.60
2023-02-19T14:38:57.527Z,99972.00
2023-02-19T14:44:04.496Z,99972.60
2023-02-19T14:49:40.277Z,99980.00
2023-02-19T14:55:10.666Z,99989.80
2023-02-19T15:00:31.002Z,99998.00
2023-02-19T15:05:38.529Z,100003.00
2023-02-19T15:10:45.632Z,100008.60
2023-02-19T15:15:52.001Z,100007.40
2023-02-19T15:21:07.461Z,100014.60
2023-02-19T15:26:39.792Z,100012.20
2023-02-19T15:31:58.766Z,100028.40
2023-02-19T15:37:11.183Z,100040.20
2023-02-19T15:42:40.133Z,100047.80
2023-02-19T15:48:09.667Z,100060.00
2023-02-19T15:53:32.498Z,100072.40
2023-02-19T15:58:57.125Z,100081.20
2023-02-19T16:04:04.367Z,100094.40
2023-02-19T16:09:29.678Z,100099.00
2023-02-19T16:14:37.830Z,100097.40
2023-02-19T16:20:01.744Z,100110.40
2023-02-19T16:25:08.929Z,100120.00
2023-02-19T16:30:18.442Z,100133.40
2023-02-19T16:35:39.994Z,100137.40
2023-02-19T16:40:48.938Z,100134.40
2023-02-19T16:45:52.562Z,100137.80
2023-02-19T16:50:56.172Z,100137.40
2023-02-19T16:56:00.063Z,100142.40
2023-02-19T17:01:03.201Z,100160.20
2023-02-19T17:06:07.189Z,100164.00
2023-02-19T17:11:14.794Z,100164.80
2023-02-19T17:16:28.883Z,100182.60
2023-02-19T17:21:33.711Z,100193.20
2023-02-19T17:26:37.433Z,100204.40
2023-02-19T17:31:40.833Z,100193.20
2023-02-19T17:36:45.657Z,100202.40
2023-02-19T17:41:49.212Z,100195.00
2023-02-19T17:46:52.439Z,100195.60
2023-02-19T17:51:55.626Z,100203.40
2023-02-19T17:56:58.748Z,100205.40
2023-02-19T18:02:03.481Z,100199.60
2023-02-19T18:07:06.583Z,100208.20
2023-02-19T18:12:09.996Z,100215.40
2023-02-19T18:17:13.218Z,100225.40
2023-02-19T18:22:16.517Z,100230.60
2023-02-19T18:27:20.777Z,100236.20
2023-02-19T18:32:25.604Z,100228.00
2023-02-19T18:37:31.553Z,100233.20
2023-02-19T18:42:34.978Z,100235.20
2023-02-19T18:47:38.327Z,100230.00
2023-02-19T18:52:41.716Z,100236.80
2023-02-19T18:57:46.905Z,100241.40
2023-02-19T19:02:51.337Z,100251.80
2023-02-19T19:07:59.562Z,100253.40
2023-02-19T19:13:02.739Z,100252.40
2023-02-19T19:18:06.282Z,100246.60
2023-02-19T19:23:09.363Z,100243.80
2023-02-19T19:28:12.704Z,100245.80
2023-02-19T19:33:17.715Z,100239.60
2023-02-19T19:38:20.949Z,100245.00
2023-02-19T19:43:28.074Z,100238.00
2023-02-19T19:48:33.390Z,100246.80
2023-02-19T19:53:36.606Z,100222.20
2023-02-19T19:58:40.629Z,100231.20
2023-02-19T20:03:43.730Z,100225.00
2023-02-19T20:08:46.948Z,100237.40
2023-02-19T20:13:50.256Z,100235.40
2023-02-19T20:18:53.767Z,100241.00
2023-02-19T20:23:56.906Z,100252.60
2023-02-19T20:29:00.182Z,100262.40
2023-02-19T20:34:04.287Z,100271.20
2023-02-19T20:39:07.419Z,100257.40
2023-02-19T20:44:10.553Z,100264.40
2023-02-19T20:49:16.483Z,100276.60
2023-02-19T20:54:24.555Z,100267.60
2023-02-19T20:59:31.310Z,100261.00
2023-02-19T21:04:34.569Z,100262.60
2023-02-19T21:09:37.729Z,100257.20
2023-02-19T21:14:41.386Z,100254.80
2023-02-19T21:19:44.769Z,100256.60
2023-02-19T21:24:53.193Z,100256.00
2023-02-19T21:29:56.308Z,100264.20
2023-02-19T21:34:59.524Z,100262.00
2023-02-19T21:40:02.833Z,100264.60
2023-02-19T21:45:06.917Z,100257.60
2023-02-19T21:50:10.978Z,100261.80
2023-02-19T21:55:14.183Z,100254.40
2023-02-19T22:00:18.438Z,100245.20
2023-02-19T22:05:21.521Z,100245.60
2023-02-19T22:10:24.730Z,100251.60
2023-02-19T22:15:27.769Z,100250.00
2023-02-19T22:20:31.055Z,100239.80
2023-02-19T22:25:34.353Z,100242.20
2023-02-19T22:30:37.672Z,100246.20
2023-02-19T22:35:41.504Z,100245.00
2023-02-19T22:40:44.602Z,100232.80
2023-02-19T22:45:48.284Z,100232.20
2023-02-19T22:50:52.830Z,100234.40
2023-02-19T22:55:55.862Z,100236.80
2023-02-19T23:00:59.035Z,100237.20
2023-02-19T23:06:05.975Z,100236.20
2023-02-19T23:11:11.789Z,100233.60
2023-02-19T23:16:15.350Z,100220.40
2023-02-19T23:21:20.738Z,100215.20
2023-02-19T23:26:24.028Z,100207.20
2023-02-19T23:31:27.384Z,100210.40
2023-02-19T23:36:30.752Z,100201.80
2023-02-19T23:41:33.751Z,100208.00
2023-02-19T23:46:36.982Z,100209.00
2023-02-19T23:51:40.578Z,100203.20
2023-02-19T23:56:43.893Z,100202.60
